Time;durP1;ratioP1;P1;durP2;ratioP2;P2;SDS_P1;SDS_P2;PMS_P1;PMS_P2;Temp;Humidity;BMP_temperature;BMP_pressure;BME280_temperature;BME280_humidity;BME280_pressure;Samples;Min_cycle;Max_cycle;Signal;HPM_P1;HPM_P2
2023/12/31 00:00:10;;;;;;;25.05;21.75;;;11.80;96.70;;;;;;4871495;29;20112;-74
2023/12/31 00:02:40;;;;;;;27.27;21.77;;;11.80;96.70;;;;;;4888674;29;20053;-74
2023/12/31 00:05:08;;;;;;;24.52;20.75;;;11.80;96.70;;;;;;4893140;29;20481;-73
2023/12/31 00:07:37;;;;;;;25.40;20.85;;;11.70;96.70;;;;;;4892806;29;20111;-74
2023/12/31 00:10:08;;;;;;;23.95;19.83;;;11.80;96.70;;;;;;4892953;29;20063;-73
2023/12/31 00:12:36;;;;;;;24.30;20.48;;;11.80;96.70;;;;;;4877713;29;20082;-73
2023/12/31 00:15:04;;;;;;;23.20;19.65;;;11.80;96.70;;;;;;4892765;29;20052;-74
2023/12/31 00:17:33;;;;;;;22.75;19.17;;;11.80;96.70;;;;;;4892119;29;20159;-74
2023/12/31 00:20:03;;;;;;;29.05;21.92;;;11.80;96.70;;;;;;4877016;29;20059;-72
2023/12/31 00:22:33;;;;;;;25.38;19.80;;;11.80;96.70;;;;;;4892972;29;20115;-72
2023/12/31 00:25:03;;;;;;;29.20;21.55;;;11.70;96.70;;;;;;4876529;29;20059;-72
2023/12/31 00:27:51;;;;;;;26.27;19.92;;;11.70;96.70;;;;;;4909422;29;20584;-72
2023/12/31 00:31:34;;;;;;;27.52;21.38;;;11.60;96.70;;;;;;4882843;29;20087;-72
2023/12/31 00:34:03;;;;;;;26.38;20.02;;;11.60;96.70;;;;;;4893320;29;20059;-72
2023/12/31 00:40:46;;;;;;;;;;;;;;;;;;;;;
2023/12/31 00:43:38;;;;;;;27.40;20.23;;;11.60;96.70;;;;;;4909394;29;20090;-73
2023/12/31 00:46:17;;;;;;;25.40;20.25;;;11.70;96.70;;;;;;4892418;29;20669;-72
2023/12/31 00:56:30;;;;;;;22.77;18.02;;;11.70;96.70;;;;;;4838292;29;20108;-72
2023/12/31 00:59:01;;;;;;;23.02;19.33;;;11.70;96.70;;;;;;4837924;29;20932;-72
2023/12/31 01:01:42;;;;;;;22.15;18.70;;;11.70;96.70;;;;;;4895948;29;20210;-73
2023/12/31 01:04:12;;;;;;;24.08;19.20;;;11.70;96.70;;;;;;4882185;29;20064;-72
2023/12/31 01:06:43;;;;;;;24.08;19.65;;;11.70;96.70;;;;;;4879770;29;20056;-72
2023/12/31 01:09:13;;;;;;;24.00;19.27;;;11.70;96.70;;;;;;4904501;29;20083;-72
2023/12/31 01:11:43;;;;;;;28.40;19.55;;;11.80;96.70;;;;;;4880712;29;20792;-72
2023/12/31 01:14:57;;;;;;;24.02;19.38;;;11.80;96.70;;;;;;4895048;29;20063;-72
2023/12/31 01:17:26;;;;;;;26.85;21.55;;;11.80;96.70;;;;;;4895791;29;20525;-72
2023/12/31 01:23:28;;;;;;;;;;;11.70;96.70;;;;;;4897951;29;20062;-72
2023/12/31 01:26:00;;;;;;;24.67;19.15;;;11.60;96.70;;;;;;4897640;29;20539;-72
2023/12/31 01:28:30;;;;;;;23.67;19.15;;;11.60;96.70;;;;;;4882556;29;20517;-72
2023/12/31 01:31:02;;;;;;;24.30;20.25;;;11.60;96.70;;;;;;4891792;29;20068;-72
2023/12/31 01:33:31;;;;;;;28.67;21.77;;;11.60;96.70;;;;;;4881437;29;20525;-72
2023/12/31 01:36:00;;;;;;;25.55;20.58;;;11.70;96.70;;;;;;4885154;29;20720;-72
2023/12/31 01:38:28;;;;;;;22.67;19.15;;;11.70;96.70;;;;;;4898196;29;20749;-72
2023/12/31 01:40:57;;;;;;;23.55;18.25;;;11.80;96.70;;;;;;4882082;29;20060;-72
2023/12/31 01:43:49;;;;;;;23.33;17.88;;;11.80;96.70;;;;;;4913366;29;20459;-72
2023/12/31 01:46:27;;;;;;;23.38;19.75;;;11.80;96.70;;;;;;4883503;29;20060;-72
2023/12/31 01:48:59;;;;;;;22.08;18.40;;;11.90;96.70;;;;;;4877509;29;20102;-73
2023/12/31 01:51:58;;;;;;;22.73;19.25;;;11.90;96.70;;;;;;4897674;29;20063;-72
2023/12/31 01:54:30;;;;;;;21.30;19.00;;;11.90;96.70;;;;;;4896109;29;20067;-73
2023/12/31 01:57:15;;;;;;;21.45;17.85;;;11.90;96.70;;;;;;4897331;29;20063;-72
2023/12/31 02:00:43;;;;;;;23.40;18.15;;;12.00;96.70;;;;;;4834816;29;20126;-72
2023/12/31 02:03:15;;;;;;;20.85;17.25;;;11.90;96.70;;;;;;4857609;29;20531;-72
2023/12/31 02:05:44;;;;;;;20.20;17.90;;;11.90;96.70;;;;;;4837904;29;20081;-72
2023/12/31 02:08:13;;;;;;;19.05;17.05;;;11.90;96.70;;;;;;4846816;29;20539;-72
2023/12/31 02:11:27;;;;;;;21.90;18.25;;;11.90;96.70;;;;;;4852796;29;20262;-72
2023/12/31 02:13:57;;;;;;;21.70;17.93;;;11.90;96.70;;;;;;4836910;29;20515;-72
2023/12/31 02:16:32;;;;;;;18.75;16.75;;;11.90;96.70;;;;;;4838707;29;20106;-72
2023/12/31 02:19:31;;;;;;;20.60;17.25;;;11.90;96.70;;;;;;4837026;29;20095;-72
2023/12/31 02:22:33;;;;;;;21.23;18.35;;;12.00;96.70;;;;;;4852727;29;20614;-72
2023/12/31 02:25:05;;;;;;;22.02;17.98;;;11.90;96.70;;;;;;4852456;29;20524;-72
2023/12/31 02:27:37;;;;;;;19.52;17.40;;;12.00;96.70;;;;;;4850000;29;20555;-72
2023/12/31 02:30:19;;;;;;;;;;;;;;;;;;;;;
2023/12/31 02:33:24;;;;;;;20.90;18.10;;;11.90;96.70;;;;;;4852751;29;20575;-73
2023/12/31 02:35:53;;;;;;;23.00;18.27;;;11.90;96.70;;;;;;4857495;29;20518;-73
2023/12/31 02:38:28;;;;;;;21.95;18.17;;;11.90;96.70;;;;;;4873090;29;20062;-72
2023/12/31 02:41:20;;;;;;;20.75;17.77;;;11.90;96.70;;;;;;4891421;29;20064;-73
2023/12/31 02:43:54;;;;;;;21.98;17.63;;;11.90;96.70;;;;;;4895260;29;20060;-72
2023/12/31 02:46:23;;;;;;;20.83;18.17;;;11.90;96.70;;;;;;4894388;29;20230;-72
2023/12/31 02:48:53;;;;;;;19.67;16.88;;;11.90;96.70;;;;;;4894273;29;20167;-72
2023/12/31 02:51:23;;;;;;;20.10;17.95;;;11.90;96.70;;;;;;4894947;29;20397;-70
2023/12/31 02:53:52;;;;;;;22.75;17.88;;;11.90;96.70;;;;;;4893826;29;20082;-72
2023/12/31 02:56:21;;;;;;;19.13;16.63;;;11.90;96.70;;;;;;4878989;29;20629;-72
2023/12/31 02:58:50;;;;;;;20.83;17.55;;;11.90;96.70;;;;;;4894679;29;20687;-72
2023/12/31 03:01:31;;;;;;;21.33;17.75;;;11.90;96.70;;;;;;4894135;29;20060;-72
2023/12/31 03:05:10;;;;;;;18.65;15.88;;;11.90;96.70;;;;;;4834099;29;20194;-72
2023/12/31 03:08:13;;;;;;;19.27;16.63;;;11.90;96.70;;;;;;4826620;29;20097;-72
2023/12/31 03:10:44;;;;;;;21.00;17.70;;;11.90;96.70;;;;;;4833576;29;20093;-72
2023/12/31 03:13:13;;;;;;;18.15;15.98;;;11.90;96.70;;;;;;4828983;29;20069;-72
2023/12/31 03:15:54;;;;;;;;;;;;;;;;;;;;;
2023/12/31 03:18:32;;;;;;;21.10;17.88;;;11.90;96.70;;;;;;4833391;29;20680;-72
2023/12/31 03:21:01;;;;;;;20.08;17.73;;;11.90;96.70;;;;;;4833873;29;20068;-72
2023/12/31 03:23:30;;;;;;;19.90;17.42;;;11.80;96.70;;;;;;4833167;29;20152;-72
2023/12/31 03:26:15;;;;;;;19.92;17.10;;;11.80;96.70;;;;;;4827963;29;20520;-72
2023/12/31 03:29:05;;;;;;;20.67;17.15;;;11.80;96.70;;;;;;4827486;29;20089;-72
2023/12/31 03:32:12;;;;;;;22.83;18.50;;;11.80;96.70;;;;;;4799426;29;20208;-72
2023/12/31 03:34:43;;;;;;;21.00;17.67;;;11.80;96.70;;;;;;4820148;29;20132;-72
2023/12/31 03:37:13;;;;;;;19.75;17.50;;;11.80;96.70;;;;;;4847883;29;20062;-72
2023/12/31 03:39:42;;;;;;;21.40;18.35;;;11.80;96.70;;;;;;4834962;29;20471;-72
2023/12/31 03:43:24;;;;;;;20.25;18.00;;;11.80;96.70;;;;;;4859120;29;20067;-72
2023/12/31 03:46:31;;;;;;;20.75;17.08;;;11.80;96.70;;;;;;4853908;29;20075;-72
2023/12/31 03:49:24;;;;;;;21.80;17.50;;;11.70;96.70;;;;;;4861603;29;20155;-73
2023/12/31 03:52:16;;;;;;;20.92;17.38;;;11.70;96.70;;;;;;4838462;29;20511;-72
2023/12/31 03:54:45;;;;;;;19.58;17.48;;;11.70;96.70;;;;;;4847513;29;20073;-72
2023/12/31 03:57:17;;;;;;;23.45;18.38;;;11.70;96.70;;;;;;4866418;29;20068;-72
2023/12/31 03:59:49;;;;;;;21.52;18.35;;;11.80;96.70;;;;;;4867459;29;20072;-72
2023/12/31 04:02:18;;;;;;;20.55;18.23;;;11.80;96.70;;;;;;4869688;29;20515;-72
2023/12/31 04:04:51;;;;;;;20.75;17.77;;;11.80;96.70;;;;;;4853880;29;20149;-72
2023/12/31 04:07:30;;;;;;;22.13;18.50;;;11.80;96.70;;;;;;4891565;29;20060;-72
2023/12/31 04:10:01;;;;;;;21.98;18.30;;;11.80;96.70;;;;;;4889464;29;20056;-73
2023/12/31 04:12:30;;;;;;;23.48;19.63;;;11.80;96.70;;;;;;4910243;29;20719;-72
2023/12/31 04:18:55;;;;;;;;;;;;;;;;;;;;;
2023/12/31 04:21:40;;;;;;;;;;;;;;;;;;;;;
2023/12/31 04:24:13;;;;;;;21.38;18.90;;;11.80;96.70;;;;;;4909641;29;20063;-72
2023/12/31 04:26:53;;;;;;;25.10;19.73;;;11.70;96.70;;;;;;4909343;29;20517;-72
2023/12/31 04:29:22;;;;;;;24.15;20.00;;;11.70;96.70;;;;;;4905401;29;20152;-72
2023/12/31 04:42:15;;;;;;;25.35;20.30;;;11.70;96.70;;;;;;4908249;29;20541;-72
2023/12/31 04:44:44;;;;;;;22.67;19.63;;;11.70;96.70;;;;;;4905566;29;20399;-73
2023/12/31 04:47:26;;;;;;;22.83;18.95;;;11.70;96.70;;;;;;4898472;29;20080;-72
2023/12/31 04:49:55;;;;;;;24.10;20.15;;;11.70;96.70;;;;;;4909957;29;20666;-73
2023/12/31 04:52:25;;;;;;;25.63;20.35;;;11.70;96.70;;;;;;4908834;29;20067;-72
2023/12/31 04:54:54;;;;;;;23.13;20.20;;;11.70;96.70;;;;;;4906127;29;20055;-72
2023/12/31 04:57:29;;;;;;;25.50;20.60;;;11.70;96.70;;;;;;4914614;29;20064;-72
2023/12/31 05:00:18;;;;;;;25.27;20.00;;;11.70;96.70;;;;;;4899914;29;20067;-72
2023/12/31 05:02:49;;;;;;;23.60;19.45;;;11.70;96.70;;;;;;4907136;29;20591;-72
2023/12/31 05:05:28;;;;;;;23.63;19.27;;;11.70;96.70;;;;;;4896533;29;20063;-72
2023/12/31 05:12:25;;;;;;;24.98;20.73;;;11.80;96.70;;;;;;4899166;29;20075;-72
2023/12/31 05:18:31;;;;;;;22.08;17.20;;;11.70;96.70;;;;;;4906278;29;20095;-72
2023/12/31 05:21:41;;;;;;;23.65;19.67;;;11.70;96.70;;;;;;4895909;29;20106;-72
2023/12/31 05:24:18;;;;;;;26.48;19.35;;;11.70;96.70;;;;;;4905010;29;20056;-73
2023/12/31 05:26:54;;;;;;;25.00;19.15;;;11.70;96.70;;;;;;4888371;29;20617;-72
2023/12/31 05:29:23;;;;;;;22.95;18.48;;;11.60;96.70;;;;;;4908204;29;20547;-72
2023/12/31 05:31:53;;;;;;;23.13;17.65;;;11.60;96.70;;;;;;4906171;29;20067;-72
2023/12/31 05:34:28;;;;;;;25.02;18.92;;;11.60;96.70;;;;;;4909484;29;20064;-72
2023/12/31 05:37:19;;;;;;;23.50;19.15;;;11.60;96.70;;;;;;4911012;29;20064;-72
2023/12/31 05:39:48;;;;;;;24.63;19.58;;;11.50;96.70;;;;;;4911592;29;20060;-72
2023/12/31 05:42:16;;;;;;;24.38;19.83;;;11.50;96.70;;;;;;4897058;29;20136;-72
2023/12/31 05:44:45;;;;;;;24.10;18.90;;;11.50;96.70;;;;;;4907377;29;20491;-72
2023/12/31 05:47:25;;;;;;;22.05;18.50;;;11.40;96.70;;;;;;4900647;29;20059;-72
2023/12/31 05:50:24;;;;;;;;;;;;;;;;;;;;;
2023/12/31 05:53:29;;;;;;;25.17;19.65;;;11.40;96.70;;;;;;4894828;29;20569;-72
2023/12/31 05:56:01;;;;;;;22.90;18.08;;;11.40;96.70;;;;;;4897109;29;20059;-72
2023/12/31 05:58:32;;;;;;;25.15;18.23;;;11.40;96.70;;;;;;4906249;29;20056;-72
2023/12/31 06:01:12;;;;;;;22.90;17.90;;;11.40;96.70;;;;;;4894584;29;20175;-73
2023/12/31 06:08:11;;;;;;;23.17;18.15;;;11.50;96.70;;;;;;4852552;29;20069;-72
2023/12/31 06:10:49;;;;;;;23.63;17.80;;;11.50;96.70;;;;;;4898977;29;20640;-73
2023/12/31 06:13:18;;;;;;;21.73;18.38;;;11.50;96.70;;;;;;4894040;29;20060;-73
2023/12/31 06:15:47;;;;;;;23.33;18.08;;;11.50;96.70;;;;;;4893752;29;20059;-72
2023/12/31 06:18:16;;;;;;;25.75;18.85;;;11.50;96.70;;;;;;4910419;29;20814;-72
2023/12/31 06:20:45;;;;;;;23.02;18.45;;;11.50;96.70;;;;;;4901879;29;20068;-72
2023/12/31 06:23:53;;;;;;;27.05;20.48;;;11.50;96.70;;;;;;4898230;29;20052;-72
2023/12/31 06:26:26;;;;;;;25.13;19.77;;;11.50;96.70;;;;;;4861036;29;20721;-72
2023/12/31 06:28:54;;;;;;;23.63;19.52;;;11.60;96.70;;;;;;4839030;29;20057;-72
2023/12/31 06:31:29;;;;;;;27.38;19.90;;;11.50;96.70;;;;;;4854385;29;20092;-72
2023/12/31 06:34:16;;;;;;;23.83;18.63;;;11.50;96.70;;;;;;4862394;29;20527;-72
2023/12/31 06:40:53;;;;;;;26.13;20.00;;;11.50;96.70;;;;;;4862876;29;20080;-72
2023/12/31 06:51:56;;;;;;;21.80;17.38;;;11.50;96.70;;;;;;4854044;29;20032;-73
2023/12/31 06:54:25;;;;;;;18.20;16.20;;;11.50;96.70;;;;;;4853868;29;20065;-72
2023/12/31 06:56:54;;;;;;;19.65;17.08;;;11.50;96.70;;;;;;4882402;29;20052;-72
2023/12/31 06:59:23;;;;;;;19.73;16.48;;;11.50;96.70;;;;;;4903575;29;20463;-72
2023/12/31 07:02:13;;;;;;;16.65;14.95;;;11.50;96.70;;;;;;4900089;29;20514;-72
2023/12/31 07:04:42;;;;;;;17.98;15.65;;;11.50;96.70;;;;;;4893807;29;20055;-72
2023/12/31 07:07:15;;;;;;;18.65;16.05;;;11.50;96.70;;;;;;4892012;29;20123;-73
2023/12/31 07:09:44;;;;;;;18.48;15.75;;;11.50;96.70;;;;;;4893900;29;20052;-72
2023/12/31 07:12:12;;;;;;;20.70;17.55;;;11.40;96.70;;;;;;4896671;29;20060;-72
2023/12/31 07:14:41;;;;;;;26.77;17.73;;;11.50;96.70;;;;;;4894064;29;20510;-73
2023/12/31 07:17:10;;;;;;;22.85;17.85;;;11.40;96.70;;;;;;4901242;29;20048;-72
2023/12/31 07:20:00;;;;;;;20.55;17.27;;;11.40;96.70;;;;;;4895045;29;20064;-72
2023/12/31 07:22:54;;;;;;;18.23;16.10;;;11.50;96.70;;;;;;4904014;29;20064;-72
2023/12/31 07:25:28;;;;;;;19.50;14.80;;;11.40;96.70;;;;;;4895518;29;20630;-72
2023/12/31 07:27:57;;;;;;;18.00;15.27;;;11.50;96.70;;;;;;4900979;29;20065;-72
2023/12/31 07:30:26;;;;;;;17.40;14.77;;;11.50;96.70;;;;;;4893363;29;20064;-72
2023/12/31 07:33:14;;;;;;;;;;;;;;;;;;;;;
2023/12/31 07:36:26;;;;;;;16.10;13.32;;;11.50;96.70;;;;;;4901921;29;20055;-72
2023/12/31 07:39:55;;;;;;;15.68;12.90;;;11.60;96.70;;;;;;4867852;29;20630;-72
2023/12/31 07:42:24;;;;;;;14.18;12.73;;;11.60;96.70;;;;;;4909708;29;20067;-72
2023/12/31 07:44:56;;;;;;;15.38;13.65;;;11.60;96.70;;;;;;4908903;29;20119;-72
2023/12/31 07:47:25;;;;;;;16.45;14.30;;;11.60;96.70;;;;;;4895754;29;20056;-72
2023/12/31 07:49:56;;;;;;;16.60;14.40;;;11.60;96.70;;;;;;4908440;29;20058;-72
2023/12/31 07:52:25;;;;;;;17.10;14.13;;;11.60;96.70;;;;;;4892381;29;20590;-72
2023/12/31 07:54:59;;;;;;;15.93;13.73;;;11.60;96.70;;;;;;4899922;29;20112;-72
2023/12/31 07:58:16;;;;;;;16.10;13.25;;;11.60;96.70;;;;;;4897288;29;20146;-72
2023/12/31 08:01:23;;;;;;;16.42;14.65;;;11.60;96.70;;;;;;4909019;29;20067;-72
2023/12/31 08:03:51;;;;;;;17.10;14.48;;;11.60;96.70;;;;;;4901331;29;20116;-71
2023/12/31 08:06:20;;;;;;;15.52;13.93;;;11.70;96.70;;;;;;4906188;29;20075;-72
2023/12/31 08:08:49;;;;;;;14.93;13.02;;;11.70;96.70;;;;;;4901988;29;20523;-72
2023/12/31 08:11:22;;;;;;;16.63;13.95;;;11.70;96.70;;;;;;4902724;29;20052;-72
2023/12/31 08:17:43;;;;;;;15.27;13.18;;;11.80;96.70;;;;;;4850089;29;20140;-72
2023/12/31 08:20:39;;;;;;;;;;;;;;;;;;;;;
2023/12/31 08:23:44;;;;;;;16.83;14.35;;;11.90;96.70;;;;;;4846537;29;20198;-72
2023/12/31 08:26:15;;;;;;;16.67;14.18;;;11.90;96.70;;;;;;4868015;29;20060;-72
2023/12/31 08:28:46;;;;;;;16.88;12.75;;;11.90;96.70;;;;;;4892303;29;20060;-72
2023/12/31 08:31:17;;;;;;;15.68;14.00;;;12.00;96.70;;;;;;4891922;29;20469;-72
2023/12/31 08:33:52;;;;;;;15.75;14.07;;;12.00;96.70;;;;;;4894091;29;20066;-73
2023/12/31 08:36:21;;;;;;;16.08;13.98;;;12.00;96.70;;;;;;4894573;29;20060;-72
2023/12/31 08:42:24;;;;;;;14.55;13.05;;;12.10;96.70;;;;;;4902013;29;20064;-72
2023/12/31 08:44:54;;;;;;;15.23;13.63;;;12.10;96.70;;;;;;4910858;29;20052;-72
2023/12/31 08:47:45;;;;;;;;;;;;;;;;;;;;;
2023/12/31 08:50:49;;;;;;;16.70;13.70;;;12.10;96.70;;;;;;4904167;29;20076;-72
2023/12/31 08:53:19;;;;;;;14.75;12.73;;;12.10;96.70;;;;;;4909920;29;20056;-72
2023/12/31 08:55:51;;;;;;;15.80;14.13;;;12.10;96.70;;;;;;4909806;29;20078;-72
2023/12/31 08:58:23;;;;;;;17.73;14.05;;;12.10;96.70;;;;;;4910083;29;21347;-72
2023/12/31 09:00:53;;;;;;;15.32;13.73;;;12.00;96.70;;;;;;4912585;29;20052;-72
2023/12/31 09:04:13;;;;;;;15.10;13.02;;;12.00;96.70;;;;;;4909266;29;20067;-72
2023/12/31 09:06:56;;;;;;;15.80;14.02;;;12.00;96.70;;;;;;4880723;29;20057;-72
2023/12/31 09:09:25;;;;;;;15.98;13.55;;;12.10;96.70;;;;;;4843491;29;20060;-72
2023/12/31 09:11:54;;;;;;;15.68;14.02;;;12.20;96.70;;;;;;4913200;29;20535;-72
2023/12/31 09:14:22;;;;;;;16.25;14.52;;;12.30;96.70;;;;;;4912996;29;20498;-72
2023/12/31 09:16:55;;;;;;;16.65;14.55;;;12.40;96.70;;;;;;4913089;29;20079;-72
2023/12/31 09:19:24;;;;;;;16.70;15.00;;;12.40;96.70;;;;;;4912851;29;20109;-71
2023/12/31 09:21:59;;;;;;;16.38;14.35;;;12.50;96.70;;;;;;4912572;29;20071;-72
2023/12/31 09:24:35;;;;;;;18.95;15.10;;;12.60;96.70;;;;;;4913250;29;20619;-72
2023/12/31 09:27:07;;;;;;;16.33;14.20;;;12.70;96.70;;;;;;4912997;29;20514;-72
2023/12/31 09:29:38;;;;;;;20.35;15.85;;;12.80;96.70;;;;;;4913689;29;20837;-72
2023/12/31 09:32:11;;;;;;;18.58;15.65;;;12.90;96.70;;;;;;4895565;29;20742;-72
2023/12/31 09:34:39;;;;;;;17.75;15.02;;;12.90;96.70;;;;;;4913045;29;20159;-72
2023/12/31 09:37:09;;;;;;;17.17;15.00;;;12.90;96.70;;;;;;4912805;29;20601;-72
2023/12/31 09:39:37;;;;;;;16.23;14.30;;;13.00;96.70;;;;;;4913053;29;20060;-72
2023/12/31 09:42:15;;;;;;;16.90;13.65;;;13.00;96.70;;;;;;4912173;29;20068;-72
2023/12/31 09:44:46;;;;;;;16.75;13.55;;;13.10;96.70;;;;;;4896004;29;20142;-72
2023/12/31 09:47:18;;;;;;;16.05;14.35;;;13.20;96.70;;;;;;4895473;29;20051;-72
2023/12/31 09:49:51;;;;;;;16.15;13.77;;;13.40;96.70;;;;;;4896326;29;20064;-72
2023/12/31 09:52:24;;;;;;;14.95;13.40;;;13.50;96.70;;;;;;4896180;29;20588;-72
2023/12/31 09:55:45;;;;;;;;;;;;;;;;;;;;;
2023/12/31 09:58:26;;;;;;;14.68;13.18;;;13.70;96.70;;;;;;4862790;29;20846;-71
2023/12/31 10:01:28;;;;;;;13.80;12.40;;;13.80;96.70;;;;;;4902290;29;20422;-71
2023/12/31 10:04:04;;;;;;;12.30;11.05;;;13.90;96.70;;;;;;4906324;29;20196;-71
2023/12/31 10:06:37;;;;;;;15.70;11.98;;;13.90;96.70;;;;;;4912022;29;20417;-71
2023/12/31 10:09:08;;;;;;;15.80;11.52;;;13.90;96.70;;;;;;4911989;29;20115;-71
2023/12/31 10:15:15;;;;;;;13.07;11.77;;;14.10;96.70;;;;;;4886436;29;20138;-71
2023/12/31 10:17:46;;;;;;;13.27;11.85;;;14.10;96.70;;;;;;4911835;29;20533;-71
2023/12/31 10:20:20;;;;;;;13.35;11.98;;;14.10;96.70;;;;;;4895958;29;20837;-71
2023/12/31 10:22:51;;;;;;;13.00;11.63;;;14.20;96.70;;;;;;4911329;29;20175;-71
2023/12/31 10:25:28;;;;;;;13.07;11.32;;;14.30;96.70;;;;;;4894368;29;20176;-71
2023/12/31 10:27:59;;;;;;;12.20;10.57;;;14.40;96.70;;;;;;4903831;29;20532;-71
2023/12/31 10:30:29;;;;;;;11.98;10.77;;;14.50;96.70;;;;;;4895139;29;20155;-71
2023/12/31 10:33:27;;;;;;;12.20;10.98;;;14.60;96.70;;;;;;4911533;29;20416;-71
2023/12/31 10:37:06;;;;;;;11.27;10.07;;;14.70;96.70;;;;;;4911602;29;20635;-71
2023/12/31 10:39:41;;;;;;;12.50;11.13;;;14.80;96.70;;;;;;4912765;29;20048;-71
2023/12/31 10:43:16;;;;;;;;;;;;;;;;;;;;;
2023/12/31 10:46:42;;;;;;;14.00;10.32;;;14.80;96.70;;;;;;4828994;29;20542;-71
2023/12/31 10:49:37;;;;;;;12.75;10.77;;;14.90;96.70;;;;;;4833649;29;20384;-72
2023/12/31 10:52:06;;;;;;;15.18;11.00;;;14.90;96.70;;;;;;4834053;29;20146;-72
2023/12/31 10:54:46;;;;;;;11.52;10.35;;;15.10;96.70;;;;;;4834335;29;20580;-72
2023/12/31 10:57:16;;;;;;;10.73;9.50;;;15.10;96.70;;;;;;4833663;29;20058;-72
2023/12/31 11:04:09;;;;;;;10.90;9.73;;;15.20;96.70;;;;;;4825150;29;20775;-71
2023/12/31 11:06:39;;;;;;;10.90;9.80;;;15.30;96.70;;;;;;4826368;29;20423;-72
2023/12/31 11:09:09;;;;;;;10.85;9.70;;;15.20;96.70;;;;;;4818602;29;20435;-71
2023/12/31 11:11:47;;;;;;;10.65;9.50;;;15.10;96.70;;;;;;4833473;29;20607;-72
2023/12/31 11:14:19;;;;;;;11.40;9.88;;;15.20;96.70;;;;;;4833412;29;20076;-72
2023/12/31 11:17:01;;;;;;;10.02;9.13;;;15.20;96.70;;;;;;4817581;29;20057;-71
2023/12/31 11:20:00;;;;;;;11.32;10.20;;;15.20;96.70;;;;;;4860118;29;20074;-71
2023/12/31 11:22:42;;;;;;;10.80;9.75;;;15.10;96.70;;;;;;4894537;29;20132;-72
2023/12/31 11:25:13;;;;;;;10.75;9.57;;;15.10;96.70;;;;;;4902802;29;20694;-72
2023/12/31 11:27:58;;;;;;;;;;;;;;;;;;;;;
2023/12/31 11:31:04;;;;;;;10.88;9.77;;;15.10;96.70;;;;;;4895966;29;20822;-71
2023/12/31 11:33:34;;;;;;;10.70;9.70;;;15.10;96.70;;;;;;4899940;29;20537;-72
2023/12/31 11:36:25;;;;;;;11.98;10.52;;;15.20;96.70;;;;;;4875886;29;21153;-72
2023/12/31 11:39:00;;;;;;;12.25;10.93;;;15.20;96.70;;;;;;4892285;29;20466;-71
2023/12/31 11:41:43;;;;;;;;;;;;;;;;;;;;;
2023/12/31 11:44:45;;;;;;;13.55;12.15;;;15.20;96.70;;;;;;4884849;29;20061;-72
2023/12/31 11:47:25;;;;;;;12.48;11.18;;;15.20;96.70;;;;;;4891171;29;20061;-72
2023/12/31 11:50:17;;;;;;;13.52;12.00;;;15.20;96.70;;;;;;4890078;29;20060;-72
2023/12/31 11:52:52;;;;;;;14.15;12.50;;;15.20;96.70;;;;;;4891798;29;20814;-72
2023/12/31 11:56:29;;;;;;;13.27;12.00;;;15.20;96.70;;;;;;4862077;29;20434;-72
2023/12/31 12:02:53;;;;;;;15.57;11.85;;;15.20;96.70;;;;;;4830008;29;20491;-71
2023/12/31 12:05:52;;;;;;;13.35;12.05;;;15.20;96.70;;;;;;4832036;29;20884;-71
2023/12/31 12:08:21;;;;;;;13.55;11.75;;;15.10;96.70;;;;;;4833008;29;20060;-72
2023/12/31 12:10:49;;;;;;;13.13;11.80;;;15.10;96.70;;;;;;4837026;29;20118;-72
2023/12/31 12:13:18;;;;;;;13.20;11.73;;;15.00;96.70;;;;;;4832196;29;20070;-72
2023/12/31 12:15:47;;;;;;;11.98;10.77;;;15.00;96.70;;;;;;4825386;29;20085;-72
2023/12/31 12:18:21;;;;;;;12.93;11.63;;;15.00;96.70;;;;;;4816934;29;20638;-71
2023/12/31 12:20:51;;;;;;;11.70;10.48;;;15.10;96.70;;;;;;4832703;29;20058;-71
2023/12/31 12:23:20;;;;;;;12.63;11.30;;;15.10;96.70;;;;;;4832238;29;20450;-72
2023/12/31 12:25:49;;;;;;;12.07;10.88;;;15.10;96.70;;;;;;4831752;29;20187;-72
2023/12/31 12:28:19;;;;;;;12.48;11.18;;;15.20;96.70;;;;;;4824965;29;20582;-72
2023/12/31 12:30:49;;;;;;;12.63;11.32;;;15.20;96.70;;;;;;4816983;29;20065;-72
2023/12/31 12:37:32;;;;;;;11.52;10.43;;;15.00;96.70;;;;;;4791423;29;20581;-72
2023/12/31 12:40:20;;;;;;;13.98;11.70;;;15.00;96.70;;;;;;4870254;29;20067;-72
2023/12/31 12:42:53;;;;;;;12.32;11.00;;;15.00;96.70;;;;;;4855126;29;20068;-72
2023/12/31 12:45:24;;;;;;;11.38;10.18;;;15.00;96.70;;;;;;4870567;29;20068;-72
2023/12/31 12:48:17;;;;;;;12.05;10.88;;;15.10;96.70;;;;;;4872549;29;20080;-71
2023/12/31 12:52:13;;;;;;;12.88;11.55;;;15.20;96.70;;;;;;4869693;29;20076;-72
2023/12/31 12:54:47;;;;;;;12.15;10.40;;;15.20;96.70;;;;;;4869364;29;20084;-72
2023/12/31 13:00:32;;;;;;;12.18;10.85;;;15.50;96.70;;;;;;4867937;29;20053;-72
2023/12/31 13:03:02;;;;;;;14.75;11.70;;;15.50;96.70;;;;;;4854885;29;20144;-72
2023/12/31 13:05:31;;;;;;;12.77;11.48;;;15.50;96.70;;;;;;4877759;29;20064;-72
2023/12/31 13:08:03;;;;;;;12.75;11.45;;;15.60;96.70;;;;;;4871701;29;20072;-71
2023/12/31 13:10:34;;;;;;;12.18;10.98;;;15.50;96.70;;;;;;4872468;29;20056;-72
2023/12/31 13:13:05;;;;;;;13.13;11.02;;;15.40;96.70;;;;;;4871517;29;20121;-72
2023/12/31 13:15:34;;;;;;;14.43;11.90;;;15.20;96.70;;;;;;4872466;29;20537;-72
2023/12/31 13:21:27;;;;;;;13.57;11.50;;;15.10;96.70;;;;;;4841521;29;20526;-72
2023/12/31 13:23:55;;;;;;;12.68;11.27;;;15.00;96.70;;;;;;4871650;29;20061;-71
2023/12/31 13:27:12;;;;;;;13.38;12.07;;;15.00;96.70;;;;;;4872064;29;20069;-71
2023/12/31 13:29:39;;;;;;;12.57;10.90;;;15.00;96.70;;;;;;4863656;29;20451;-72
2023/12/31 13:32:11;;;;;;;12.15;10.38;;;15.00;96.70;;;;;;4871632;29;20460;-71
2023/12/31 13:34:39;;;;;;;12.30;11.00;;;15.00;96.70;;;;;;4871620;29;20537;-72
2023/12/31 13:37:21;;;;;;;11.38;10.25;;;15.00;96.70;;;;;;4871157;29;20419;-72
2023/12/31 13:39:51;;;;;;;11.70;10.52;;;15.00;96.70;;;;;;4854309;29;20092;-72
2023/12/31 13:42:21;;;;;;;12.45;11.23;;;15.00;96.70;;;;;;4851693;29;20122;-72
2023/12/31 13:44:52;;;;;;;12.60;11.30;;;15.00;96.70;;;;;;4852896;29;20061;-71
2023/12/31 13:47:21;;;;;;;12.07;10.85;;;15.00;96.70;;;;;;4852730;29;20066;-71
2023/12/31 13:49:57;;;;;;;12.65;11.27;;;15.00;96.70;;;;;;4852954;29;20057;-71
2023/12/31 13:52:29;;;;;;;12.15;10.95;;;14.90;96.70;;;;;;4853216;29;20534;-72
2023/12/31 13:55:00;;;;;;;12.25;11.05;;;14.90;96.70;;;;;;4836777;29;20741;-71
2023/12/31 13:57:39;;;;;;;12.60;11.30;;;14.90;96.70;;;;;;4852235;29;20843;-71
2023/12/31 14:00:10;;;;;;;12.45;11.23;;;14.90;96.70;;;;;;4856864;29;20675;-72
2023/12/31 14:02:42;;;;;;;13.38;11.15;;;14.80;96.70;;;;;;4846479;29;20542;-72
2023/12/31 14:05:57;;;;;;;11.65;10.45;;;14.80;96.70;;;;;;4852691;29;20098;-72
2023/12/31 14:08:44;;;;;;;13.02;11.73;;;14.80;96.70;;;;;;4856535;29;20895;-72
2023/12/31 14:11:13;;;;;;;16.25;13.13;;;14.80;96.70;;;;;;4863867;29;20068;-71
2023/12/31 14:13:47;;;;;;;12.23;11.00;;;14.80;96.70;;;;;;4847488;29;20503;-72
2023/12/31 14:17:27;;;;;;;13.43;11.95;;;14.70;96.70;;;;;;4855802;29;20137;-72
2023/12/31 14:20:03;;;;;;;17.30;15.55;;;14.70;96.70;;;;;;4856022;29;20150;-71
2023/12/31 14:22:38;;;;;;;15.18;13.25;;;14.70;96.70;;;;;;4855527;29;20057;-72
2023/12/31 14:25:21;;;;;;;14.82;13.23;;;14.70;96.70;;;;;;4857456;29;20542;-72
2023/12/31 14:36:05;;;;;;;13.45;11.73;;;14.80;96.70;;;;;;4817606;29;20549;-72
2023/12/31 14:38:36;;;;;;;12.82;11.20;;;14.90;96.70;;;;;;4869835;29;20507;-72
2023/12/31 14:41:08;;;;;;;12.02;10.82;;;14.80;96.70;;;;;;4874594;29;20073;-72
2023/12/31 14:44:10;;;;;;;12.52;11.20;;;14.80;96.70;;;;;;4875182;29;20053;-72
2023/12/31 14:46:42;;;;;;;13.20;11.77;;;14.80;96.70;;;;;;4822285;29;20668;-72
2023/12/31 14:49:15;;;;;;;12.57;10.40;;;14.80;96.70;;;;;;4878450;29;20060;-72
2023/12/31 14:51:44;;;;;;;12.05;10.85;;;14.80;96.70;;;;;;4876144;29;20087;-72
2023/12/31 14:57:49;;;;;;;11.85;10.57;;;14.70;96.70;;;;;;4873526;29;20071;-71
2023/12/31 15:00:23;;;;;;;13.05;10.50;;;14.70;96.70;;;;;;4873783;29;20060;-71
2023/12/31 15:02:52;;;;;;;12.48;10.52;;;14.70;96.70;;;;;;4881927;29;20096;-72
2023/12/31 15:05:28;;;;;;;12.48;11.18;;;14.70;96.70;;;;;;4873793;29;20137;-71
2023/12/31 15:08:16;;;;;;;12.85;11.35;;;14.60;96.70;;;;;;4873169;29;20106;-71
2023/12/31 15:10:47;;;;;;;;;;;14.60;96.70;;;;;;4873866;29;20530;-72
2023/12/31 15:13:19;;;;;;;13.25;11.50;;;14.60;96.70;;;;;;4873489;29;20442;-72
2023/12/31 15:15:48;;;;;;;13.13;11.45;;;14.60;96.70;;;;;;4873839;29;20061;-72
2023/12/31 15:18:17;;;;;;;17.92;15.65;;;14.60;96.70;;;;;;4848363;29;20486;-72